Time;durP1;ratioP1;P1;durP2;ratioP2;P2;SDS_P1;SDS_P2;PMS_P1;PMS_P2;Temp;Humidity;BMP_temperature;BMP_pressure;BME280_temperature;BME280_humidity;BME280_pressure;Samples;Min_cycle;Max_cycle;Signal;HPM_P1;HPM_P2
2023/01/18 00:02:01;;;;;;;;;;;;;;;1.80;66.92;95032.03;5036634;28;19979;-76
2023/01/18 00:04:54;;;;;;;;;;;;;;;1.83;66.62;95028.72;5032311;28;19995;-76
2023/01/18 00:07:22;;;;;;;;;;;;;;;1.83;66.23;95035.97;5035093;28;20044;-73
2023/01/18 00:09:52;;;;;;;;;;;;;;;1.79;66.50;95032.38;5033666;28;19925;-73
2023/01/18 00:12:20;;;;;;;;;;;;;;;1.89;65.97;95023.94;5035916;28;19925;-72
2023/01/18 00:14:51;;;;;;;;;;;;;;;1.93;65.28;95027.56;5022508;28;19932;-73
2023/01/18 00:17:19;;;;;;;;;;;;;;;1.88;65.91;95022.38;5036578;28;19925;-79
2023/01/18 00:19:48;;;;;;;;;;;;;;;1.84;66.35;95027.59;5036652;28;19925;-79
2023/01/18 00:22:16;;;;;;;;;;;;;;;1.85;66.73;95023.03;5035392;28;19936;-79
2023/01/18 00:24:44;;;;;;;;;;;;;;;1.87;65.59;95038.78;5032876;28;20085;-79
2023/01/18 00:27:14;;;;;;;;;;;;;;;1.76;65.79;95038.38;5018121;28;20356;-79
2023/01/18 00:30:31;;;;;;;;;;;;;;;1.80;66.76;95047.31;5050694;28;19933;-80
2023/01/18 00:51:16;;;;;;;;;;;;;;;1.75;65.74;95039.47;5601828;23;19926;-71
2023/01/18 00:53:44;;;;;;;;;;;;;;;1.70;66.75;95042.31;4949002;28;20500;-71
2023/01/18 01:27:55;;;;;;;;;;;;;;;1.91;66.13;95059.19;4953728;29;19931;-76
2023/01/18 01:30:23;;;;;;;;;;;;;;;1.95;65.49;95054.00;4950136;28;19927;-77
2023/01/18 01:32:53;;;;;;;;;;;;;;;1.95;65.63;95054.78;4925769;29;19931;-77
2023/01/18 01:35:47;;;;;;;;;;;;;;;2.02;65.26;95051.56;4950231;28;20306;-77
2023/01/18 01:38:15;;;;;;;;;;;;;;;1.92;64.68;95051.94;4950754;29;19973;-77
2023/01/18 01:40:43;;;;;;;;;;;;;;;1.99;63.72;95060.25;4955727;29;19933;-77
2023/01/18 01:43:11;;;;;;;;;;;;;;;1.95;64.57;95060.13;4954512;28;19930;-77
2023/01/18 01:45:39;;;;;;;;;;;;;;;2.04;64.96;95058.19;4949380;28;20443;-77
2023/01/18 01:48:09;;;;;;;;;;;;;;;2.03;65.66;95066.53;4948822;28;19933;-76
2023/01/18 01:50:37;;;;;;;;;;;;;;;2.09;66.25;95066.03;4951281;29;19926;-74
2023/01/18 01:53:05;;;;;;;;;;;;;;;2.07;66.88;95070.13;4952308;29;19927;-74
2023/01/18 01:55:35;;;;;;;;;;;;;;;2.09;66.61;95068.69;4954016;29;19926;-73
2023/01/18 01:58:03;;;;;;;;;;;;;;;2.14;66.78;95062.38;4953632;29;20306;-71
2023/01/18 02:00:31;;;;;;;;;;;;;;;2.21;65.88;95067.19;4952366;29;19931;-73
2023/01/18 02:03:00;;;;;;;;;;;;;;;2.13;66.56;95060.81;4953584;28;20331;-71
2023/01/18 02:05:31;;;;;;;;;;;;;;;2.20;66.46;95066.41;4950940;28;19926;-77
2023/01/18 02:08:00;;;;;;;;;;;;;;;2.10;65.92;95061.44;4955095;29;19974;-76
2023/01/18 02:10:30;;;;;;;;;;;;;;;1.99;66.20;95069.06;4954455;28;19962;-75
2023/01/18 02:12:58;;;;;;;;;;;;;;;1.87;66.66;95054.84;4953862;29;19926;-76
2023/01/18 02:15:28;;;;;;;;;;;;;;;1.90;67.53;95057.63;4953887;28;19931;-74
2023/01/18 02:18:14;;;;;;;;;;;;;;;1.98;67.90;95054.13;4953483;29;19926;-74
2023/01/18 02:21:01;;;;;;;;;;;;;;;2.08;68.56;95052.97;4945747;29;20350;-74
2023/01/18 02:23:34;;;;;;;;;;;;;;;2.05;68.74;95049.03;4942667;29;20426;-74
2023/01/18 02:26:41;;;;;;;;;;;;;;;2.23;68.51;95056.94;4948816;29;19933;-74
2023/01/18 02:29:13;;;;;;;;;;;;;;;2.23;68.33;95052.34;4948384;29;20361;-74
2023/01/18 02:31:44;;;;;;;;;;;;;;;2.10;67.65;95053.41;4950773;28;19997;-74
2023/01/18 02:34:13;;;;;;;;;;;;;;;2.17;67.47;95060.91;4954509;28;19926;-74
2023/01/18 02:36:42;;;;;;;;;;;;;;;2.26;66.67;95058.97;4955288;28;19943;-71
2023/01/18 02:39:22;;;;;;;;;;;;;;;2.23;66.60;95055.03;4954177;28;19926;-71
2023/01/18 02:47:39;;;;;;;;;;;;;;;2.20;65.85;95065.63;4895377;29;19927;-72
2023/01/18 02:50:08;;;;;;;;;;;;;;;2.12;67.41;95053.84;4913411;29;19927;-74
2023/01/18 02:52:38;;;;;;;;;;;;;;;2.10;67.22;95062.22;4933089;29;19934;-72
2023/01/18 02:55:31;;;;;;;;;;;;;;;2.18;67.35;95073.97;4948844;29;19937;-72
2023/01/18 02:58:01;;;;;;;;;;;;;;;2.14;67.95;95066.94;4949347;29;20371;-73
2023/01/18 03:00:30;;;;;;;;;;;;;;;2.05;67.79;95070.44;4934521;29;19926;-73
2023/01/18 03:03:22;;;;;;;;;;;;;;;2.07;68.36;95065.53;4950626;29;19934;-73
2023/01/18 03:05:51;;;;;;;;;;;;;;;2.10;68.63;95062.22;4954371;29;19933;-73
2023/01/18 03:08:20;;;;;;;;;;;;;;;2.10;68.74;95064.13;4930871;29;20364;-73
2023/01/18 03:10:51;;;;;;;;;;;;;;;2.15;67.51;95063.16;4949586;29;20008;-72
2023/01/18 03:13:52;;;;;;;;;;;;;;;2.03;67.76;95070.00;4929533;29;19966;-73
2023/01/18 03:37:43;;;;;;;;;;;;;;;1.96;67.95;95085.00;4991261;23;20394;-79
2023/01/18 03:40:12;;;;;;;;;;;;;;;1.87;68.50;95081.63;4958175;28;19927;-78
2023/01/18 03:42:41;;;;;;;;;;;;;;;1.90;68.61;95094.34;4957945;29;19927;-77
2023/01/18 03:45:10;;;;;;;;;;;;;;;1.83;68.35;95076.91;4952983;28;19930;-77
2023/01/18 03:47:39;;;;;;;;;;;;;;;1.82;68.66;95090.63;4956824;29;19927;-76
2023/01/18 03:50:07;;;;;;;;;;;;;;;1.77;68.78;95090.81;4939954;29;19934;-76
2023/01/18 03:52:36;;;;;;;;;;;;;;;1.81;68.65;95087.16;4946201;28;20302;-76
2023/01/18 03:55:33;;;;;;;;;;;;;;;1.89;68.78;95092.78;4941091;29;19946;-75
2023/01/18 03:58:01;;;;;;;;;;;;;;;1.93;68.74;95097.16;4942253;29;20279;-75
2023/01/18 04:00:30;;;;;;;;;;;;;;;1.99;68.58;95097.75;4938963;29;19926;-75
2023/01/18 04:05:50;;;;;;;;;;;;;;;1.90;70.45;95105.81;4948362;29;19934;-75
2023/01/18 04:08:22;;;;;;;;;;;;;;;1.88;70.38;95108.06;4953174;29;19950;-75
2023/01/18 04:10:51;;;;;;;;;;;;;;;1.83;71.14;95105.56;4955862;29;19927;-74
2023/01/18 04:13:19;;;;;;;;;;;;;;;1.88;70.92;95110.72;4957428;29;19981;-76
2023/01/18 04:15:48;;;;;;;;;;;;;;;1.90;71.29;95113.84;4945883;29;19927;-72
2023/01/18 04:18:16;;;;;;;;;;;;;;;1.96;71.26;95117.13;4956970;29;19927;-72
2023/01/18 04:20:43;;;;;;;;;;;;;;;1.98;71.31;95115.72;4956435;28;19927;-72
2023/01/18 04:23:12;;;;;;;;;;;;;;;2.01;71.34;95120.41;4957549;29;19926;-72
2023/01/18 04:25:48;;;;;;;;;;;;;;;2.05;71.41;95118.66;4956723;28;19926;-72
2023/01/18 04:28:24;;;;;;;;;;;;;;;2.05;71.21;95118.66;4950575;29;19975;-72
2023/01/18 04:30:54;;;;;;;;;;;;;;;2.04;71.29;95122.44;4954454;29;19969;-72
2023/01/18 04:33:22;;;;;;;;;;;;;;;2.06;71.16;95122.91;4956226;28;19933;-72
2023/01/18 04:35:53;;;;;;;;;;;;;;;2.08;71.58;95126.06;4933441;29;19933;-73
2023/01/18 04:38:21;;;;;;;;;;;;;;;2.11;71.21;95127.28;4944848;29;19926;-73
2023/01/18 04:40:49;;;;;;;;;;;;;;;2.05;71.63;95118.66;4956865;29;19927;-72
2023/01/18 04:43:19;;;;;;;;;;;;;;;2.11;71.22;95121.91;4937744;29;19926;-73
2023/01/18 04:45:53;;;;;;;;;;;;;;;2.12;71.49;95123.50;4949195;29;19927;-72
2023/01/18 04:48:20;;;;;;;;;;;;;;;2.18;71.57;95121.41;4952755;28;19949;-72
2023/01/18 04:50:48;;;;;;;;;;;;;;;2.14;72.11;95120.50;4956974;29;20297;-72
2023/01/18 04:53:16;;;;;;;;;;;;;;;2.07;71.89;95121.00;4955334;29;20386;-72
2023/01/18 04:55:45;;;;;;;;;;;;;;;2.04;72.46;95129.69;4949694;29;19926;-72
2023/01/18 04:58:13;;;;;;;;;;;;;;;2.00;72.24;95134.91;4950623;28;20289;-72
2023/01/18 05:00:49;;;;;;;;;;;;;;;2.03;72.25;95126.25;4950575;28;19937;-72
2023/01/18 05:03:17;;;;;;;;;;;;;;;1.93;72.39;95129.28;4938110;29;19927;-71
2023/01/18 05:05:46;;;;;;;;;;;;;;;2.03;72.53;95136.94;4953871;28;19926;-79
2023/01/18 05:08:15;;;;;;;;;;;;;;;2.08;72.34;95135.97;4958788;29;19930;-79
2023/01/18 05:10:43;;;;;;;;;;;;;;;2.13;72.01;95146.50;4954098;28;19933;-79
2023/01/18 05:13:11;;;;;;;;;;;;;;;2.15;71.95;95152.31;4930853;29;19978;-80
2023/01/18 05:15:39;;;;;;;;;;;;;;;2.11;72.18;95162.09;4957612;29;19926;-72
2023/01/18 05:18:08;;;;;;;;;;;;;;;2.14;72.09;95158.00;4956031;28;19927;-72
2023/01/18 05:20:37;;;;;;;;;;;;;;;2.11;72.35;95162.09;4956714;29;19927;-72
2023/01/18 05:23:09;;;;;;;;;;;;;;;2.14;72.15;95164.13;4955777;28;19944;-72
2023/01/18 05:25:39;;;;;;;;;;;;;;;2.21;71.87;95174.34;4956333;28;19978;-72
2023/01/18 05:28:07;;;;;;;;;;;;;;;2.19;71.60;95176.56;4954445;28;19926;-72
2023/01/18 05:30:38;;;;;;;;;;;;;;;2.13;72.48;95175.16;4953592;29;19934;-72
2023/01/18 05:33:05;;;;;;;;;;;;;;;2.25;71.53;95175.25;4955273;28;20287;-72
2023/01/18 05:35:35;;;;;;;;;;;;;;;2.23;71.97;95172.09;4937791;29;20374;-72
2023/01/18 05:38:03;;;;;;;;;;;;;;;2.30;71.85;95183.91;4953794;29;19934;-72
2023/01/18 05:40:31;;;;;;;;;;;;;;;2.33;70.80;95182.44;4955946;28;19926;-72
2023/01/18 05:42:59;;;;;;;;;;;;;;;2.19;71.87;95188.06;4954279;29;19926;-72
2023/01/18 05:45:27;;;;;;;;;;;;;;;2.22;71.74;95187.41;4955692;28;19926;-79
2023/01/18 05:47:55;;;;;;;;;;;;;;;2.22;71.55;95191.97;4953460;29;19950;-79
2023/01/18 05:50:23;;;;;;;;;;;;;;;2.21;72.03;95195.75;4957877;29;20432;-81
2023/01/18 05:52:55;;;;;;;;;;;;;;;2.21;72.06;95193.09;4942700;29;19969;-79
2023/01/18 05:55:23;;;;;;;;;;;;;;;2.20;71.96;95196.88;4952651;29;19935;-80
2023/01/18 05:57:52;;;;;;;;;;;;;;;2.27;72.04;95194.47;4960736;29;19914;-81
2023/01/18 06:00:21;;;;;;;;;;;;;;;2.35;71.68;95193.63;4950840;29;19927;-78
2023/01/18 06:05:41;;;;;;;;;;;;;;;2.38;71.82;95205.59;4966456;29;19952;-72
2023/01/18 06:08:11;;;;;;;;;;;;;;;2.28;71.65;95218.25;4937611;29;19930;-72
2023/01/18 06:10:40;;;;;;;;;;;;;;;2.27;71.79;95213.22;4948436;29;19935;-71
2023/01/18 06:13:11;;;;;;;;;;;;;;;2.23;72.26;95212.28;4947612;29;19927;-71
2023/01/18 06:15:39;;;;;;;;;;;;;;;2.27;72.02;95211.31;4936835;29;19974;-72
2023/01/18 06:18:07;;;;;;;;;;;;;;;2.32;71.72;95210.34;4949891;29;19927;-71
2023/01/18 06:20:36;;;;;;;;;;;;;;;2.39;71.72;95220.53;4949961;29;19941;-74
2023/01/18 06:23:04;;;;;;;;;;;;;;;2.36;71.72;95230.03;4954286;29;20562;-75
2023/01/18 06:25:33;;;;;;;;;;;;;;;2.31;71.59;95232.91;4936934;29;19926;-72
2023/01/18 06:28:03;;;;;;;;;;;;;;;2.38;71.85;95237.75;4956147;28;19930;-73
2023/01/18 06:30:31;;;;;;;;;;;;;;;2.44;71.57;95242.59;4925780;29;19927;-73
2023/01/18 06:33:03;;;;;;;;;;;;;;;2.43;71.21;95224.94;4950130;28;19930;-72
2023/01/18 06:35:32;;;;;;;;;;;;;;;2.49;71.33;95229.00;4953986;28;19965;-80
2023/01/18 06:38:01;;;;;;;;;;;;;;;2.39;71.67;95234.72;4980412;28;19926;-83
2023/01/18 06:43:30;;;;;;;;;;;;;;;2.56;71.47;95240.00;5060912;23;19958;-76
2023/01/18 06:45:58;;;;;;;;;;;;;;;2.41;71.89;95248.59;4924775;29;20386;-79
2023/01/18 06:48:27;;;;;;;;;;;;;;;2.45;71.97;95254.91;4939189;29;20006;-76
2023/01/18 06:50:58;;;;;;;;;;;;;;;2.49;71.87;95257.69;4914202;29;19966;-74
2023/01/18 06:53:26;;;;;;;;;;;;;;;2.60;70.95;95259.66;4934502;29;19926;-74
2023/01/18 06:55:56;;;;;;;;;;;;;;;2.57;71.35;95268.38;4941244;29;19910;-80
2023/01/18 06:58:25;;;;;;;;;;;;;;;2.50;71.65;95268.06;4922355;29;19973;-80
2023/01/18 07:00:58;;;;;;;;;;;;;;;2.54;71.60;95268.22;4936122;29;19930;-81
2023/01/18 07:03:30;;;;;;;;;;;;;;;2.58;71.17;95275.31;4521602;23;19931;-79
2023/01/18 07:06:01;;;;;;;;;;;;;;;2.48;71.78;95275.66;4933575;28;19927;-80
2023/01/18 07:08:45;;;;;;;;;;;;;;;2.54;71.19;95284.31;5016278;23;19950;-78
2023/01/18 07:11:13;;;;;;;;;;;;;;;2.48;71.73;95290.97;4931286;29;19926;-79
2023/01/18 07:13:42;;;;;;;;;;;;;;;2.55;71.55;95296.59;4939709;29;19934;-77
2023/01/18 07:16:16;;;;;;;;;;;;;;;2.49;70.22;95298.66;4955035;29;19935;-77
2023/01/18 07:18:47;;;;;;;;;;;;;;;2.17;70.74;95313.47;4933815;29;20021;-78
2023/01/18 07:21:15;;;;;;;;;;;;;;;2.10;71.15;95315.88;4953650;29;19953;-80
2023/01/18 07:23:46;;;;;;;;;;;;;;;1.97;71.44;95325.69;5032361;23;19930;-77
2023/01/18 07:26:17;;;;;;;;;;;;;;;1.93;71.48;95329.31;5009321;23;19926;-78
2023/01/18 07:29:18;;;;;;;;;;;;;;;2.03;71.26;95324.41;5089879;23;20416;-76
2023/01/18 07:31:48;;;;;;;;;;;;;;;2.05;71.14;95332.09;4932735;29;19927;-77
2023/01/18 07:34:16;;;;;;;;;;;;;;;2.01;70.75;95336.53;4939185;29;19965;-77
2023/01/18 07:36:44;;;;;;;;;;;;;;;2.08;70.42;95342.19;4939574;29;19926;-76
2023/01/18 07:39:12;;;;;;;;;;;;;;;1.93;70.35;95346.16;4917329;29;20413;-76
2023/01/18 07:41:41;;;;;;;;;;;;;;;1.75;71.45;95344.59;4918361;29;19984;-76
2023/01/18 07:44:10;;;;;;;;;;;;;;;1.78;71.40;95352.00;4936908;29;19930;-76
2023/01/18 07:46:38;;;;;;;;;;;;;;;1.81;71.16;95348.69;4935168;29;20469;-71
2023/01/18 07:49:07;;;;;;;;;;;;;;;1.86;71.10;95355.75;4918574;29;20025;-72
2023/01/18 07:51:35;;;;;;;;;;;;;;;1.83;71.49;95363.34;4931397;29;19927;-72
2023/01/18 07:54:03;;;;;;;;;;;;;;;1.74;71.57;95367.13;4933962;29;19937;-72
2023/01/18 07:56:32;;;;;;;;;;;;;;;1.79;71.48;95372.31;4923680;29;19927;-71
2023/01/18 07:59:00;;;;;;;;;;;;;;;1.78;71.70;95365.38;4934636;29;19926;-72
2023/01/18 08:01:28;;;;;;;;;;;;;;;1.74;71.66;95370.56;4932094;29;19953;-72
2023/01/18 08:04:00;;;;;;;;;;;;;;;1.76;72.27;95373.75;4934936;29;19931;-71
2023/01/18 08:06:30;;;;;;;;;;;;;;;1.77;71.82;95374.53;4931971;29;19934;-71
2023/01/18 08:08:58;;;;;;;;;;;;;;;1.60;73.14;95378.00;4934094;29;19934;-71
2023/01/18 08:11:26;;;;;;;;;;;;;;;1.61;73.35;95378.78;4935814;29;20386;-71
2023/01/18 08:17:12;;;;;;;;;;;;;;;1.51;74.18;95390.59;4933171;29;19934;-71
2023/01/18 08:19:42;;;;;;;;;;;;;;;1.53;74.11;95391.84;4932617;29;19934;-71
2023/01/18 08:22:11;;;;;;;;;;;;;;;1.54;74.45;95398.75;4913018;29;19927;-71
2023/01/18 08:24:40;;;;;;;;;;;;;;;1.53;74.59;95401.75;4928162;29;19927;-71
2023/01/18 08:27:08;;;;;;;;;;;;;;;1.64;74.74;95404.91;4932460;29;19926;-72
2023/01/18 08:29:38;;;;;;;;;;;;;;;1.65;74.67;95403.81;4939134;29;19927;-71
2023/01/18 08:32:07;;;;;;;;;;;;;;;1.77;73.91;95415.47;4938153;29;19927;-71
2023/01/18 08:34:37;;;;;;;;;;;;;;;1.57;74.84;95416.88;4920257;29;19936;-71
2023/01/18 08:37:05;;;;;;;;;;;;;;;1.64;74.66;95421.75;4936292;29;19927;-75
2023/01/18 08:39:34;;;;;;;;;;;;;;;1.57;75.09;95424.91;4939366;29;19926;-75
2023/01/18 08:42:03;;;;;;;;;;;;;;;1.67;74.90;95431.84;4929584;29;19934;-75
2023/01/18 08:44:31;;;;;;;;;;;;;;;1.70;74.48;95439.22;4934999;29;20375;-75
2023/01/18 08:46:59;;;;;;;;;;;;;;;1.62;74.68;95439.22;4934671;29;19927;-75
2023/01/18 08:49:27;;;;;;;;;;;;;;;1.73;74.77;95449.31;4919112;29;19937;-76
2023/01/18 08:52:19;;;;;;;;;;;;;;;1.68;74.44;95437.97;4938407;29;19933;-72
2023/01/18 08:54:49;;;;;;;;;;;;;;;1.75;74.37;95443.63;4933196;29;19927;-75
2023/01/18 08:57:18;;;;;;;;;;;;;;;1.91;73.64;95443.94;4924161;29;19926;-75
2023/01/18 08:59:46;;;;;;;;;;;;;;;1.92;73.92;95448.19;4933114;29;19926;-75
2023/01/18 09:02:15;;;;;;;;;;;;;;;2.00;73.57;95458.91;4935656;29;20310;-75
2023/01/18 09:05:08;;;;;;;;;;;;;;;1.97;73.37;95453.41;4930261;29;19934;-75
2023/01/18 09:07:37;;;;;;;;;;;;;;;1.94;73.55;95459.41;4931588;29;19938;-75
2023/01/18 09:10:09;;;;;;;;;;;;;;;1.95;73.40;95458.28;4925897;29;19993;-74
2023/01/18 09:12:40;;;;;;;;;;;;;;;2.04;73.12;95462.53;4924744;29;20005;-74
2023/01/18 09:15:09;;;;;;;;;;;;;;;2.03;72.64;95463.66;4928022;29;20326;-74
2023/01/18 09:17:37;;;;;;;;;;;;;;;1.99;73.04;95473.41;4914584;29;19927;-76
2023/01/18 09:20:08;;;;;;;;;;;;;;;2.07;72.65;95477.97;4917431;29;19935;-76
2023/01/18 09:22:36;;;;;;;;;;;;;;;2.08;72.44;95484.13;4932129;29;19934;-75
2023/01/18 09:25:05;;;;;;;;;;;;;;;2.07;72.57;95485.22;4917728;29;20310;-77
2023/01/18 09:27:35;;;;;;;;;;;;;;;2.13;72.16;95488.50;4931310;29;19957;-76
2023/01/18 09:30:05;;;;;;;;;;;;;;;2.12;72.22;95497.66;4927835;29;19958;-76
2023/01/18 09:32:33;;;;;;;;;;;;;;;2.20;72.31;95500.34;4932118;29;19931;-75
2023/01/18 09:35:01;;;;;;;;;;;;;;;2.24;71.91;95506.66;4913336;29;19931;-75
2023/01/18 09:37:54;;;;;;;;;;;;;;;2.41;71.49;95505.06;4930995;28;19927;-71
2023/01/18 09:40:47;;;;;;;;;;;;;;;2.44;71.10;95504.41;4929761;29;20371;-70
2023/01/18 09:43:18;;;;;;;;;;;;;;;2.58;70.69;95505.81;4929724;29;20450;-70
2023/01/18 09:45:47;;;;;;;;;;;;;;;2.60;70.18;95508.94;4932885;29;19926;-70
2023/01/18 09:48:19;;;;;;;;;;;;;;;2.63;69.45;95513.69;4932185;29;20042;-70
2023/01/18 09:50:47;;;;;;;;;;;;;;;2.66;69.45;95512.25;4917852;29;19927;-70
2023/01/18 09:53:18;;;;;;;;;;;;;;;2.71;68.70;95524.69;4914238;29;19973;-70
2023/01/18 09:55:48;;;;;;;;;;;;;;;2.71;68.80;95532.75;4933257;29;20283;-70
2023/01/18 09:58:30;;;;;;;;;;;;;;;2.66;68.89;95540.94;4932888;29;19975;-69
2023/01/18 10:01:00;;;;;;;;;;;;;;;2.65;68.27;95547.41;4924189;29;19927;-70
2023/01/18 10:03:29;;;;;;;;;;;;;;;2.54;68.68;95550.44;4905811;29;19941;-70
2023/01/18 10:06:07;;;;;;;;;;;;;;;2.69;68.66;95554.50;4932852;29;19970;-72
2023/01/18 10:09:00;;;;;;;;;;;;;;;2.66;68.53;95560.50;4920990;29;19934;-71
2023/01/18 10:11:30;;;;;;;;;;;;;;;2.59;67.65;95566.34;4940544;29;19927;-72
2023/01/18 10:14:07;;;;;;;;;;;;;;;2.51;68.64;95574.41;4932665;29;19950;-72
2023/01/18 10:16:36;;;;;;;;;;;;;;;2.44;68.63;95572.19;4932956;28;19931;-72
2023/01/18 10:19:09;;;;;;;;;;;;;;;2.46;69.43;95574.56;4921166;29;20361;-72
2023/01/18 10:21:46;;;;;;;;;;;;;;;2.39;69.52;95577.69;4933403;29;19915;-74
2023/01/18 10:24:33;;;;;;;;;;;;;;;2.52;69.87;95578.66;4936380;29;20010;-74
2023/01/18 10:27:09;;;;;;;;;;;;;;;2.33;69.99;95578.97;4929576;29;20037;-70
2023/01/18 10:29:42;;;;;;;;;;;;;;;2.20;70.17;95586.06;4933020;29;19934;-70
2023/01/18 10:32:11;;;;;;;;;;;;;;;2.16;70.60;95589.69;4931621;29;19927;-71
2023/01/18 10:34:41;;;;;;;;;;;;;;;2.16;70.38;95595.81;4917848;29;20293;-70
2023/01/18 10:37:13;;;;;;;;;;;;;;;2.18;70.71;95592.81;4930147;29;19935;-76
2023/01/18 10:39:44;;;;;;;;;;;;;;;2.19;69.90;95602.47;4916981;29;19986;-76
2023/01/18 10:42:16;;;;;;;;;;;;;;;2.04;70.27;95601.81;4931483;29;19950;-76
2023/01/18 10:44:46;;;;;;;;;;;;;;;2.01;70.74;95615.81;4934092;29;19977;-76
2023/01/18 10:47:16;;;;;;;;;;;;;;;2.01;70.80;95612.34;4919539;29;19934;-76
2023/01/18 10:49:46;;;;;;;;;;;;;;;1.99;70.80;95609.19;4929921;29;19927;-76
2023/01/18 10:52:18;;;;;;;;;;;;;;;2.00;70.99;95613.44;4931635;29;19944;-74
2023/01/18 10:54:49;;;;;;;;;;;;;;;1.94;70.68;95617.38;4938207;29;19962;-72
2023/01/18 10:57:19;;;;;;;;;;;;;;;2.06;69.90;95614.88;4934185;29;19970;-79
2023/01/18 10:59:49;;;;;;;;;;;;;;;2.05;70.20;95621.34;4935592;29;19935;-76
2023/01/18 11:02:42;;;;;;;;;;;;;;;2.08;70.23;95615.38;4934460;29;19974;-77
2023/01/18 11:05:16;;;;;;;;;;;;;;;2.12;69.43;95627.00;4932661;29;19950;-78
2023/01/18 11:08:13;;;;;;;;;;;;;;;2.08;69.37;95634.91;4934509;29;20013;-77
2023/01/18 11:10:42;;;;;;;;;;;;;;;2.15;69.08;95637.09;4939500;29;19934;-77
2023/01/18 11:13:23;;;;;;;;;;;;;;;2.05;68.97;95648.91;4912362;29;20070;-76
2023/01/18 11:16:17;;;;;;;;;;;;;;;2.11;69.51;95644.19;4929945;29;19927;-80
2023/01/18 11:19:06;;;;;;;;;;;;;;;2.01;69.87;95658.66;4917426;29;19934;-78
2023/01/18 11:21:45;;;;;;;;;;;;;;;2.00;70.01;95654.41;4930585;29;19934;-79
2023/01/18 11:24:13;;;;;;;;;;;;;;;1.97;69.81;95663.06;4941942;29;19934;-80
2023/01/18 11:26:50;;;;;;;;;;;;;;;1.92;70.18;95660.53;4927593;29;19927;-79
2023/01/18 11:29:18;;;;;;;;;;;;;;;1.89;70.04;95671.06;4928822;29;20018;-79
2023/01/18 11:31:48;;;;;;;;;;;;;;;1.88;69.85;95670.28;4928277;29;19938;-78
2023/01/18 11:34:20;;;;;;;;;;;;;;;1.90;69.72;95672.63;4937442;29;19927;-78
2023/01/18 11:36:49;;;;;;;;;;;;;;;1.98;69.04;95669.22;4935646;29;19949;-79
2023/01/18 11:39:28;;;;;;;;;;;;;;;1.92;69.48;95683.81;4924520;29;19962;-78
2023/01/18 11:42:17;;;;;;;;;;;;;;;1.91;69.23;95684.94;4931654;29;19934;-71
2023/01/18 11:44:47;;;;;;;;;;;;;;;1.89;69.16;95687.13;4927025;29;19935;-74
2023/01/18 11:47:16;;;;;;;;;;;;;;;1.93;69.16;95694.25;4936116;29;19930;-76
2023/01/18 11:49:45;;;;;;;;;;;;;;;1.98;69.09;95693.31;4941400;29;19926;-76
2023/01/18 11:52:17;;;;;;;;;;;;;;;1.94;69.59;95703.84;4935782;28;20401;-75
2023/01/18 11:54:46;;;;;;;;;;;;;;;1.92;68.78;95700.69;4927644;29;19927;-76
2023/01/18 11:57:15;;;;;;;;;;;;;;;2.00;68.74;95694.56;4942300;29;19927;-79
2023/01/18 11:59:44;;;;;;;;;;;;;;;2.04;68.97;95698.22;4951831;29;19926;-76
2023/01/18 12:02:33;;;;;;;;;;;;;;;2.02;68.83;95703.06;4945142;29;19926;-77
2023/01/18 12:11:24;;;;;;;;;;;;;;;1.97;69.65;95716.63;4936039;29;19931;-79
2023/01/18 12:14:17;;;;;;;;;;;;;;;2.15;69.29;95722.03;4928439;29;19915;-78
2023/01/18 12:16:53;;;;;;;;;;;;;;;2.09;69.55;95719.50;4932988;29;19950;-76
2023/01/18 12:19:28;;;;;;;;;;;;;;;2.18;69.30;95737.47;4931881;29;19931;-76
2023/01/18 12:22:11;;;;;;;;;;;;;;;2.03;69.46;95728.78;4931225;29;20374;-77
2023/01/18 12:24:45;;;;;;;;;;;;;;;1.98;69.82;95736.16;4937881;29;20059;-76
2023/01/18 12:27:38;;;;;;;;;;;;;;;1.98;70.31;95742.31;4936560;29;20006;-76
2023/01/18 12:30:31;;;;;;;;;;;;;;;1.89;69.87;95741.47;4945290;23;19927;-76
2023/01/18 12:33:03;;;;;;;;;;;;;;;1.88;70.31;95755.97;4936819;29;20321;-77
2023/01/18 12:35:46;;;;;;;;;;;;;;;1.86;70.54;95763.50;4930296;29;19934;-73
2023/01/18 12:38:17;;;;;;;;;;;;;;;1.82;69.97;95762.56;4918605;29;19927;-73
2023/01/18 12:40:56;;;;;;;;;;;;;;;1.94;70.05;95775.34;4917110;29;19935;-73
2023/01/18 12:43:28;;;;;;;;;;;;;;;1.91;69.77;95782.09;4938289;29;19990;-76
2023/01/18 12:46:02;;;;;;;;;;;;;;;1.93;70.02;95782.59;4936648;29;19958;-77
2023/01/18 12:48:34;;;;;;;;;;;;;;;1.81;70.74;95787.72;4942801;29;20339;-75
2023/01/18 12:51:04;;;;;;;;;;;;;;;1.95;70.80;95793.00;4919990;29;19934;-75
2023/01/18 12:53:37;;;;;;;;;;;;;;;1.89;71.26;95794.25;4934468;29;19934;-75
2023/01/18 12:56:09;;;;;;;;;;;;;;;1.76;72.33;95796.69;4936404;29;19974;-76
2023/01/18 12:58:37;;;;;;;;;;;;;;;1.78;72.50;95799.84;4934124;29;20402;-75
2023/01/18 13:01:05;;;;;;;;;;;;;;;1.74;73.25;95803.44;4934916;29;19933;-75
2023/01/18 13:03:35;;;;;;;;;;;;;;;1.64;73.79;95803.69;4935484;29;19926;-76
2023/01/18 13:06:06;;;;;;;;;;;;;;;1.65;74.25;95806.06;4932461;29;19927;-72
2023/01/18 13:08:37;;;;;;;;;;;;;;;1.57;75.08;95810.25;4931953;29;19945;-72
2023/01/18 13:11:09;;;;;;;;;;;;;;;1.53;75.45;95814.63;4931891;29;19949;-72
2023/01/18 13:13:37;;;;;;;;;;;;;;;1.68;75.50;95818.03;4922690;29;20318;-72
2023/01/18 13:16:16;;;;;;;;;;;;;;;1.80;74.75;95824.41;4937117;29;19934;-77
2023/01/18 13:18:48;;;;;;;;;;;;;;;1.73;75.27;95831.31;4932482;29;19927;-77
2023/01/18 13:21:19;;;;;;;;;;;;;;;1.86;74.85;95830.44;4936590;29;19927;-77
2023/01/18 13:23:48;;;;;;;;;;;;;;;1.88;75.18;95830.16;4941299;29;19962;-77
2023/01/18 13:26:24;;;;;;;;;;;;;;;1.80;75.20;95845.03;4942471;29;19934;-77
2023/01/18 13:29:16;;;;;;;;;;;;;;;1.89;75.28;95837.06;4925290;29;20028;-77
2023/01/18 13:31:45;;;;;;;;;;;;;;;1.79;75.37;95854.19;4931361;29;19927;-77
2023/01/18 13:34:22;;;;;;;;;;;;;;;1.91;74.68;95851.72;4927324;29;19927;-77
2023/01/18 13:36:50;;;;;;;;;;;;;;;1.91;74.08;95859.75;4926244;29;19927;-72
2023/01/18 13:39:19;;;;;;;;;;;;;;;1.92;74.86;95857.88;4935238;29;19926;-73
2023/01/18 13:42:08;;;;;;;;;;;;;;;1.91;74.64;95861.66;4930874;29;19938;-72
2023/01/18 13:44:37;;;;;;;;;;;;;;;2.02;74.52;95874.47;4924788;29;19934;-73
2023/01/18 13:47:20;;;;;;;;;;;;;;;1.88;74.20;95873.78;4928466;29;19938;-72
2023/01/18 13:49:48;;;;;;;;;;;;;;;1.77;75.09;95885.81;4927443;29;19931;-73
2023/01/18 13:52:28;;;;;;;;;;;;;;;1.78;74.07;95895.44;4932163;29;19935;-73
2023/01/18 13:55:02;;;;;;;;;;;;;;;1.80;74.32;95899.38;4931755;29;20442;-73
2023/01/18 13:57:33;;;;;;;;;;;;;;;1.80;74.81;95906.63;4927931;29;19959;-75
2023/01/18 14:00:01;;;;;;;;;;;;;;;1.74;74.48;95911.31;4931247;29;20029;-75
2023/01/18 14:02:33;;;;;;;;;;;;;;;1.80;75.11;95918.13;4923886;29;19969;-72
2023/01/18 14:05:33;;;;;;;;;;;;;;;1.91;73.80;95926.69;4927935;29;19983;-73
2023/01/18 14:08:03;;;;;;;;;;;;;;;1.88;74.11;95930.00;4925374;29;19946;-74
2023/01/18 14:10:35;;;;;;;;;;;;;;;1.74;74.32;95929.25;4918115;29;20305;-73
2023/01/18 14:13:05;;;;;;;;;;;;;;;1.74;74.34;95943.44;4935974;29;19927;-73
2023/01/18 14:15:39;;;;;;;;;;;;;;;1.96;73.93;95945.31;4933975;29;20379;-76
2023/01/18 14:18:13;;;;;;;;;;;;;;;1.88;73.88;95951.44;4928070;28;19930;-76
2023/01/18 14:20:48;;;;;;;;;;;;;;;1.82;74.25;95966.03;4913871;29;20314;-76
2023/01/18 14:23:39;;;;;;;;;;;;;;;1.78;74.49;95967.72;4934401;29;19927;-76
2023/01/18 14:26:08;;;;;;;;;;;;;;;1.93;74.23;95985.34;4930000;29;19931;-76
2023/01/18 14:28:38;;;;;;;;;;;;;;;2.02;73.05;95976.25;4927790;29;20295;-75
2023/01/18 14:31:10;;;;;;;;;;;;;;;2.02;73.71;95983.50;4925961;29;20294;-75
2023/01/18 14:33:40;;;;;;;;;;;;;;;1.97;73.40;95991.66;4931779;29;19959;-74
2023/01/18 14:36:16;;;;;;;;;;;;;;;1.93;73.03;95990.69;4936630;29;19977;-75
2023/01/18 14:38:44;;;;;;;;;;;;;;;1.93;73.53;95998.72;4925461;29;19985;-75
2023/01/18 14:41:13;;;;;;;;;;;;;;;1.95;73.24;96002.66;4931824;29;19927;-75
2023/01/18 14:43:43;;;;;;;;;;;;;;;1.80;73.89;96013.72;4923788;29;19955;-76
2023/01/18 14:46:14;;;;;;;;;;;;;;;1.74;74.50;96009.56;4934646;29;20298;-75
2023/01/18 14:48:45;;;;;;;;;;;;;;;1.90;73.26;96021.53;4917881;29;19927;-76
2023/01/18 14:54:12;;;;;;;;;;;;;;;1.88;73.60;96033.66;4936442;29;19931;-76
2023/01/18 14:56:41;;;;;;;;;;;;;;;1.80;73.75;96040.50;4941850;29;19927;-74
2023/01/18 14:59:21;;;;;;;;;;;;;;;1.84;73.51;96049.50;4933696;29;20412;-75
2023/01/18 15:01:53;;;;;;;;;;;;;;;1.83;72.95;96054.06;4937791;29;20390;-75
2023/01/18 15:04:23;;;;;;;;;;;;;;;1.75;73.79;96064.69;4929794;29;19927;-76